createdAt,value
2023-04-27T00:02:08.322Z,6.87
2023-04-27T00:04:35.722Z,6.87
2023-04-27T00:07:02.707Z,6.87
2023-04-27T00:09:29.709Z,6.86
2023-04-27T00:11:56.739Z,6.84
2023-04-27T00:14:24.040Z,6.84
2023-04-27T00:16:52.593Z,6.83
2023-04-27T00:19:19.677Z,6.81
2023-04-27T00:21:46.720Z,6.85
2023-04-27T00:24:13.654Z,6.80
2023-04-27T00:26:40.769Z,6.72
2023-04-27T00:29:07.760Z,6.68
2023-04-27T00:31:34.667Z,6.68
2023-04-27T00:34:01.675Z,6.71
2023-04-27T00:36:29.546Z,6.74
2023-04-27T00:38:56.623Z,6.75
2023-04-27T00:41:24.616Z,6.77
2023-04-27T00:43:51.540Z,6.75
2023-04-27T00:46:20.014Z,6.79
2023-04-27T00:48:47.240Z,6.79
2023-04-27T00:51:15.977Z,6.79
2023-04-27T00:53:43.840Z,6.74
2023-04-27T00:56:11.271Z,6.78
2023-04-27T00:58:38.231Z,6.78
2023-04-27T01:01:06.037Z,6.80
2023-04-27T01:03:33.289Z,6.79
2023-04-27T01:06:01.950Z,6.76
2023-04-27T01:08:29.826Z,6.77
2023-04-27T01:10:57.021Z,6.80
2023-04-27T01:13:25.005Z,6.72
2023-04-27T01:15:51.944Z,6.61
2023-04-27T01:18:19.908Z,6.50
2023-04-27T01:20:46.863Z,6.39
2023-04-27T01:23:16.818Z,6.40
2023-04-27T01:25:44.535Z,6.37
2023-04-27T01:28:11.555Z,6.40
2023-04-27T01:30:39.576Z,6.40
2023-04-27T01:33:06.610Z,6.37
2023-04-27T01:35:33.554Z,6.39
2023-04-27T01:38:00.982Z,6.38
2023-04-27T01:40:35.445Z,6.37
2023-04-27T01:43:03.288Z,6.33
2023-04-27T01:45:30.308Z,6.30
2023-04-27T01:47:59.712Z,6.23
2023-04-27T01:50:27.648Z,6.15
2023-04-27T01:52:54.864Z,6.11
2023-04-27T01:55:21.915Z,6.11
2023-04-27T01:57:48.845Z,6.11
2023-04-27T02:00:16.255Z,6.11
2023-04-27T02:02:51.501Z,6.08
2023-04-27T02:05:18.885Z,6.07
2023-04-27T02:07:47.625Z,6.00
2023-04-27T02:10:16.743Z,6.01
2023-04-27T02:12:45.928Z,6.03
2023-04-27T02:15:12.974Z,6.10
2023-04-27T02:17:40.273Z,6.12
2023-04-27T02:20:08.203Z,6.17
2023-04-27T02:22:35.195Z,6.18
2023-04-27T02:25:02.813Z,6.13
2023-04-27T02:27:29.983Z,6.12
2023-04-27T02:29:58.349Z,6.05
2023-04-27T02:32:25.944Z,6.05
2023-04-27T02:34:53.429Z,6.05
2023-04-27T02:37:20.454Z,6.03
2023-04-27T02:39:49.850Z,6.08
2023-04-27T02:42:17.001Z,6.14
2023-04-27T02:44:44.185Z,6.18
2023-04-27T02:47:12.740Z,6.18
2023-04-27T02:49:40.412Z,6.17
2023-04-27T02:52:09.330Z,6.11
2023-04-27T02:54:36.280Z,6.10
2023-04-27T02:57:03.803Z,6.07
2023-04-27T02:59:30.949Z,6.04
2023-04-27T03:01:58.428Z,5.99
2023-04-27T03:04:28.396Z,5.99
2023-04-27T03:06:55.901Z,5.97
2023-04-27T03:09:23.067Z,5.94
2023-04-27T03:11:50.932Z,5.93
2023-04-27T03:14:17.952Z,5.90
2023-04-27T03:16:45.057Z,5.86
2023-04-27T03:19:13.990Z,5.88
2023-04-27T03:21:41.156Z,5.85
2023-04-27T03:24:09.295Z,5.82
2023-04-27T03:26:36.347Z,5.83
2023-04-27T03:29:04.522Z,5.81
2023-04-27T03:31:31.922Z,5.84
2023-04-27T03:33:59.122Z,5.85
2023-04-27T03:36:27.536Z,5.88
2023-04-27T03:38:54.568Z,5.94
2023-04-27T03:41:22.422Z,5.98
2023-04-27T03:43:51.462Z,6.02
2023-04-27T03:46:18.642Z,6.03
2023-04-27T03:48:47.450Z,6.03
2023-04-27T03:51:15.534Z,6.04
2023-04-27T03:53:45.166Z,6.08
2023-04-27T03:56:13.756Z,6.04
2023-04-27T03:58:41.064Z,6.02
2023-04-27T04:01:19.588Z,6.04
2023-04-27T04:03:48.592Z,6.05
2023-04-27T04:06:15.833Z,6.03
2023-04-27T04:08:43.003Z,6.01
2023-04-27T04:11:10.535Z,5.96
2023-04-27T04:13:37.816Z,5.91
2023-04-27T04:16:06.036Z,5.86
2023-04-27T04:18:37.338Z,5.83
2023-04-27T04:21:06.175Z,5.82
2023-04-27T04:23:34.188Z,5.84
2023-04-27T04:26:02.502Z,5.86
2023-04-27T04:28:33.747Z,5.95
2023-04-27T04:31:06.164Z,5.95
2023-04-27T04:33:34.024Z,5.89
2023-04-27T04:36:04.750Z,5.90
2023-04-27T04:38:33.262Z,5.87
2023-04-27T04:41:03.249Z,5.84
2023-04-27T04:43:33.567Z,5.82
2023-04-27T04:46:05.795Z,5.81
2023-04-27T04:48:34.046Z,5.78
2023-04-27T04:51:02.187Z,5.76
2023-04-27T04:53:30.855Z,5.77
2023-04-27T04:55:57.857Z,5.76
2023-04-27T04:58:25.170Z,5.74
2023-04-27T05:00:53.451Z,5.75
2023-04-27T05:03:20.696Z,5.75
2023-04-27T05:05:48.931Z,5.77
2023-04-27T05:08:17.447Z,5.76
2023-04-27T05:10:57.798Z,5.77
2023-04-27T05:13:28.299Z,5.79
2023-04-27T05:15:55.930Z,5.85
2023-04-27T05:18:22.880Z,5.89
2023-04-27T05:20:49.873Z,5.93
2023-04-27T05:23:18.406Z,5.98
2023-04-27T05:25:45.377Z,6.02
2023-04-27T05:28:12.744Z,6.07
2023-04-27T05:30:41.144Z,6.09
2023-04-27T05:33:08.307Z,6.12
2023-04-27T05:35:35.841Z,6.16
2023-04-27T05:38:03.258Z,6.21
2023-04-27T05:40:31.504Z,6.21
2023-04-27T05:42:58.496Z,6.23
2023-04-27T05:45:27.004Z,6.26
2023-04-27T05:47:55.377Z,6.29
2023-04-27T05:50:22.724Z,6.34
2023-04-27T05:52:49.683Z,6.39
2023-04-27T05:55:16.702Z,6.45
2023-04-27T05:57:43.704Z,6.48
2023-04-27T06:00:13.131Z,6.46
2023-04-27T06:02:40.399Z,6.46
2023-04-27T06:05:08.300Z,6.51
2023-04-27T06:07:37.790Z,6.50
2023-04-27T06:10:05.553Z,6.53
2023-04-27T06:12:32.818Z,6.58
2023-04-27T06:15:00.702Z,6.75
2023-04-27T06:17:28.596Z,6.88
2023-04-27T06:19:55.637Z,7.02
2023-04-27T06:22:22.714Z,7.17
2023-04-27T06:24:49.721Z,7.29
2023-04-27T06:27:16.808Z,7.40
2023-04-27T06:29:43.769Z,7.53
2023-04-27T06:32:11.455Z,7.63
2023-04-27T06:34:39.069Z,7.74
2023-04-27T06:37:07.160Z,7.93
2023-04-27T06:39:35.606Z,8.11
2023-04-27T06:42:04.721Z,8.29
2023-04-27T06:44:32.638Z,8.37
2023-04-27T06:47:00.166Z,8.48
2023-04-27T06:49:27.546Z,8.50
2023-04-27T06:51:54.738Z,8.49
2023-04-27T06:54:21.959Z,8.56
2023-04-27T06:56:49.079Z,8.65
2023-04-27T06:59:16.369Z,8.74
2023-04-27T07:01:44.282Z,8.83
2023-04-27T07:04:15.652Z,8.90
2023-04-27T07:06:42.917Z,8.91
2023-04-27T07:09:20.148Z,9.02
2023-04-27T07:12:03.307Z,9.10
2023-04-27T07:14:30.708Z,9.17
2023-04-27T07:16:57.858Z,9.23
2023-04-27T07:19:25.802Z,9.41
2023-04-27T07:21:53.431Z,9.50
2023-04-27T07:24:23.417Z,9.62
2023-04-27T07:26:50.319Z,9.69
2023-04-27T07:29:27.204Z,9.70
2023-04-27T07:31:55.985Z,9.83
2023-04-27T07:34:25.037Z,10.00
2023-04-27T07:36:54.735Z,10.10
2023-04-27T07:39:21.712Z,10.23
2023-04-27T07:41:50.350Z,10.34
2023-04-27T07:44:21.201Z,10.51
2023-04-27T07:46:49.256Z,10.63
2023-04-27T07:49:16.876Z,10.73
2023-04-27T07:51:43.994Z,10.78
2023-04-27T07:54:10.998Z,10.91
2023-04-27T07:56:42.552Z,11.02
2023-04-27T07:59:09.664Z,11.02
2023-04-27T08:01:37.111Z,11.02
2023-04-27T08:04:04.746Z,11.06
2023-04-27T08:06:33.330Z,11.29
2023-04-27T08:09:02.304Z,11.39
2023-04-27T08:11:29.606Z,11.51
2023-04-27T08:13:56.595Z,11.61
2023-04-27T08:16:23.751Z,11.72
2023-04-27T08:18:51.268Z,11.72
2023-04-27T08:21:18.249Z,11.79
2023-04-27T08:23:45.715Z,11.82
2023-04-27T08:26:16.758Z,11.82
2023-04-27T08:28:43.861Z,11.74
2023-04-27T08:31:10.907Z,11.73
2023-04-27T08:33:38.356Z,11.81
2023-04-27T08:36:05.868Z,11.94
2023-04-27T08:38:35.114Z,12.08
2023-04-27T08:41:14.152Z,12.23
2023-04-27T08:43:50.342Z,12.41
2023-04-27T08:46:22.114Z,12.47
2023-04-27T08:48:53.188Z,12.58
2023-04-27T08:51:21.628Z,12.73
2023-04-27T08:53:57.085Z,12.90
2023-04-27T08:56:27.048Z,13.05
2023-04-27T08:58:55.986Z,13.13
2023-04-27T09:01:24.826Z,13.25
2023-04-27T09:04:09.281Z,13.27
2023-04-27T09:06:36.849Z,13.36
2023-04-27T09:09:04.628Z,13.42
2023-04-27T09:11:35.388Z,13.48
2023-04-27T09:14:23.518Z,13.73
2023-04-27T09:16:59.802Z,13.81
2023-04-27T09:19:28.930Z,13.91
2023-04-27T09:22:11.682Z,14.18
2023-04-27T09:24:39.045Z,14.34
2023-04-27T09:27:07.596Z,14.35
2023-04-27T09:29:40.098Z,14.38
2023-04-27T09:32:21.315Z,14.48
2023-04-27T09:34:48.973Z,14.51
2023-04-27T09:37:16.914Z,14.71
2023-04-27T09:39:46.434Z,14.98
2023-04-27T09:42:14.012Z,15.30
2023-04-27T09:44:41.375Z,15.72
2023-04-27T09:47:08.996Z,16.01
2023-04-27T09:49:36.492Z,16.30
2023-04-27T09:52:04.441Z,16.50
2023-04-27T09:54:34.789Z,16.61
2023-04-27T09:57:20.218Z,16.61
2023-04-27T10:00:12.089Z,16.66
2023-04-27T10:02:53.332Z,16.75
2023-04-27T10:05:44.104Z,16.84
2023-04-27T10:08:13.147Z,17.01
2023-04-27T10:10:48.173Z,17.08
2023-04-27T10:13:25.742Z,16.84
2023-04-27T10:15:54.415Z,16.91
2023-04-27T10:18:31.389Z,17.02
2023-04-27T10:21:20.255Z,17.00
2023-04-27T10:23:49.896Z,17.22
2023-04-27T10:26:28.941Z,17.81
2023-04-27T10:29:07.404Z,18.30
2023-04-27T10:31:37.513Z,18.49
2023-04-27T10:34:11.915Z,18.67
2023-04-27T10:36:39.896Z,18.59
2023-04-27T10:39:17.013Z,18.51
2023-04-27T10:41:55.633Z,18.21
2023-04-27T10:44:28.927Z,18.15
2023-04-27T10:46:57.969Z,18.00
2023-04-27T10:49:24.895Z,17.81
2023-04-27T10:51:53.389Z,17.70
2023-04-27T10:54:22.120Z,17.62
2023-04-27T10:56:49.010Z,17.54
2023-04-27T10:59:16.220Z,17.54
2023-04-27T11:01:43.538Z,17.39
2023-04-27T11:04:10.773Z,17.36
2023-04-27T11:06:46.422Z,17.54
2023-04-27T11:09:14.609Z,17.74
2023-04-27T11:11:46.377Z,18.02
2023-04-27T11:14:20.020Z,18.20
2023-04-27T11:16:50.564Z,18.24
2023-04-27T11:19:17.798Z,18.08
2023-04-27T11:21:44.933Z,17.61
2023-04-27T11:24:15.152Z,17.43
2023-04-27T11:26:42.604Z,17.13
2023-04-27T11:29:12.768Z,16.89
2023-04-27T11:31:52.160Z,16.65
2023-04-27T11:34:22.774Z,16.37
2023-04-27T11:37:17.208Z,16.40
2023-04-27T11:39:46.782Z,16.58
2023-04-27T11:42:21.069Z,16.80
2023-04-27T11:44:56.935Z,17.11
2023-04-27T11:47:27.992Z,17.53
2023-04-27T11:49:57.495Z,18.09
2023-04-27T11:52:36.902Z,18.73
2023-04-27T11:55:04.868Z,19.29
2023-04-27T11:57:36.995Z,20.05
2023-04-27T12:00:11.480Z,20.53
2023-04-27T12:02:44.271Z,20.94
2023-04-27T12:05:13.750Z,21.25
2023-04-27T12:07:41.688Z,21.46
2023-04-27T12:10:09.436Z,21.25
2023-04-27T12:12:36.494Z,21.10
2023-04-27T12:15:06.504Z,21.16
2023-04-27T12:17:34.133Z,21.47
2023-04-27T12:20:01.789Z,21.91
2023-04-27T12:22:29.076Z,21.91
2023-04-27T12:24:58.198Z,21.62
2023-04-27T12:27:26.699Z,21.29
2023-04-27T12:29:54.726Z,21.33
2023-04-27T12:32:21.957Z,21.54
2023-04-27T12:34:48.987Z,21.82
2023-04-27T12:37:15.983Z,21.62
2023-04-27T12:39:43.341Z,21.72
2023-04-27T12:42:10.384Z,21.45
2023-04-27T12:44:37.444Z,21.14
2023-04-27T12:47:05.694Z,20.72
2023-04-27T12:49:32.949Z,20.42
2023-04-27T12:52:00.345Z,20.35
2023-04-27T12:54:27.281Z,20.30
2023-04-27T12:56:54.227Z,20.58
2023-04-27T12:59:22.487Z,21.12
2023-04-27T13:01:49.599Z,21.13
2023-04-27T13:04:21.549Z,21.20
2023-04-27T13:06:49.343Z,21.37
2023-04-27T13:09:20.034Z,21.47
2023-04-27T13:11:47.268Z,21.63
2023-04-27T13:14:14.415Z,21.62
2023-04-27T13:16:42.434Z,21.78
2023-04-27T13:19:09.976Z,22.27
2023-04-27T13:21:37.364Z,22.29
2023-04-27T13:24:04.466Z,22.25
2023-04-27T13:26:31.565Z,22.34
2023-04-27T13:28:58.914Z,22.52
2023-04-27T13:31:26.028Z,22.37
2023-04-27T13:33:54.092Z,22.19
2023-04-27T13:36:21.266Z,22.01
2023-04-27T13:38:49.434Z,22.03
2023-04-27T13:41:16.860Z,22.10
2023-04-27T13:43:44.047Z,22.17
2023-04-27T13:46:11.113Z,22.16
2023-04-27T13:48:38.287Z,22.16
2023-04-27T13:51:05.318Z,22.31
2023-04-27T13:53:32.338Z,22.77
2023-04-27T13:56:00.487Z,22.91
2023-04-27T13:58:29.427Z,23.14
2023-04-27T14:00:58.361Z,23.43
2023-04-27T14:03:25.579Z,23.20
2023-04-27T14:05:52.933Z,22.92
2023-04-27T14:08:20.067Z,22.71
2023-04-27T14:10:47.159Z,22.46
2023-04-27T14:13:14.964Z,22.42
2023-04-27T14:15:42.422Z,22.43
2023-04-27T14:18:10.146Z,22.68
2023-04-27T14:20:43.215Z,22.61
2023-04-27T14:23:11.884Z,22.00
2023-04-27T14:25:39.434Z,21.21
2023-04-27T14:28:06.702Z,20.37
2023-04-27T14:30:35.042Z,19.89
2023-04-27T14:33:03.179Z,19.46
2023-04-27T14:35:30.356Z,19.14
2023-04-27T14:38:02.503Z,18.73
2023-04-27T14:40:31.490Z,18.40
2023-04-27T14:43:00.038Z,18.24
2023-04-27T14:45:36.670Z,18.07
2023-04-27T14:48:07.299Z,17.83
2023-04-27T14:50:35.237Z,17.73
2023-04-27T14:53:05.088Z,17.67
2023-04-27T14:55:33.209Z,17.47
2023-04-27T14:58:00.355Z,17.35
2023-04-27T15:00:27.288Z,17.32
2023-04-27T15:02:55.920Z,17.36
2023-04-27T15:05:23.106Z,17.41
2023-04-27T15:07:50.159Z,17.45
2023-04-27T15:10:17.247Z,17.56
2023-04-27T15:12:55.185Z,17.77
2023-04-27T15:15:23.758Z,17.90
2023-04-27T15:17:50.848Z,17.96
2023-04-27T15:20:17.894Z,18.10
2023-04-27T15:22:44.950Z,18.14
2023-04-27T15:25:12.443Z,18.00
2023-04-27T15:27:41.892Z,17.84
2023-04-27T15:30:09.186Z,17.80
2023-04-27T15:32:36.564Z,17.70
2023-04-27T15:35:06.236Z,17.58
2023-04-27T15:37:35.201Z,17.42
2023-04-27T15:40:04.217Z,17.47
2023-04-27T15:42:31.345Z,17.57
2023-04-27T15:44:59.251Z,17.67
2023-04-27T15:47:32.798Z,17.77
2023-04-27T15:49:59.775Z,17.75
2023-04-27T15:52:27.411Z,17.79
2023-04-27T15:54:56.387Z,17.78
2023-04-27T15:57:23.307Z,17.80
2023-04-27T15:59:50.305Z,17.85
2023-04-27T16:02:18.923Z,17.83
2023-04-27T16:04:50.041Z,17.91
2023-04-27T16:07:17.074Z,17.92
2023-04-27T16:09:44.303Z,18.00
2023-04-27T16:12:11.376Z,18.09
2023-04-27T16:14:38.561Z,18.10
2023-04-27T16:17:05.724Z,17.99
2023-04-27T16:19:33.379Z,17.92
2023-04-27T16:22:01.851Z,17.91
2023-04-27T16:24:31.674Z,17.95
2023-04-27T16:27:00.168Z,17.98
2023-04-27T16:29:27.200Z,17.97
2023-04-27T16:31:54.593Z,17.97
2023-04-27T16:34:21.967Z,17.96
2023-04-27T16:36:50.064Z,17.98
2023-04-27T16:39:19.752Z,17.98
2023-04-27T16:41:47.264Z,17.94
2023-04-27T16:44:14.484Z,17.97
2023-04-27T16:46:42.266Z,18.00
2023-04-27T16:49:10.503Z,18.01
2023-04-27T16:51:37.747Z,17.98
2023-04-27T16:54:05.189Z,17.98
2023-04-27T16:56:35.023Z,17.97
2023-04-27T16:59:02.252Z,17.96
2023-04-27T17:01:31.306Z,17.94
2023-04-27T17:04:00.211Z,17.92
2023-04-27T17:06:28.228Z,17.92
2023-04-27T17:08:56.635Z,17.87
2023-04-27T17:11:24.891Z,17.82
2023-04-27T17:13:51.936Z,17.73
2023-04-27T17:16:22.343Z,17.62
2023-04-27T17:18:50.167Z,17.49
2023-04-27T17:21:22.234Z,17.49
2023-04-27T17:23:52.004Z,17.46
2023-04-27T17:26:23.272Z,17.32
2023-04-27T17:28:53.776Z,17.10
2023-04-27T17:31:24.271Z,16.90
2023-04-27T17:33:51.534Z,16.82
2023-04-27T17:36:19.556Z,16.79
2023-04-27T17:38:46.789Z,16.74
2023-04-27T17:41:13.828Z,16.70
2023-04-27T17:43:41.246Z,16.61
2023-04-27T17:46:13.769Z,16.52
2023-04-27T17:48:44.282Z,16.42
2023-04-27T17:51:11.612Z,16.32
2023-04-27T17:53:38.785Z,16.23
2023-04-27T17:56:05.863Z,16.14
2023-04-27T17:58:33.297Z,16.01
2023-04-27T18:01:00.377Z,15.91
2023-04-27T18:03:27.611Z,15.86
2023-04-27T18:05:54.999Z,15.86
2023-04-27T18:08:24.044Z,15.84
2023-04-27T18:10:51.415Z,15.71
2023-04-27T18:13:18.482Z,15.77
2023-04-27T18:15:46.341Z,15.72
2023-04-27T18:18:17.123Z,15.67
2023-04-27T18:20:50.385Z,15.62
2023-04-27T18:23:17.449Z,15.57
2023-04-27T18:25:45.005Z,15.52
2023-04-27T18:28:12.109Z,15.50
2023-04-27T18:30:39.183Z,15.46
2023-04-27T18:33:06.528Z,15.40
2023-04-27T18:35:33.677Z,15.36
2023-04-27T18:38:00.965Z,15.30
2023-04-27T18:40:28.347Z,15.25
2023-04-27T18:42:55.970Z,15.00
2023-04-27T18:45:23.260Z,14.79
2023-04-27T18:47:50.299Z,14.59
2023-04-27T18:50:17.770Z,14.49
2023-04-27T18:52:46.374Z,14.49
2023-04-27T18:55:14.640Z,14.45
2023-04-27T18:57:41.864Z,14.46
2023-04-27T19:00:11.395Z,14.50
2023-04-27T19:02:39.192Z,14.48
2023-04-27T19:05:14.372Z,14.42
2023-04-27T19:07:42.314Z,14.37
2023-04-27T19:10:10.361Z,14.32
2023-04-27T19:12:39.111Z,14.25
2023-04-27T19:15:06.593Z,14.15
2023-04-27T19:17:41.243Z,14.03
2023-04-27T19:20:09.500Z,13.83
2023-04-27T19:22:37.275Z,13.69
2023-04-27T19:25:05.106Z,13.57
2023-04-27T19:27:32.682Z,13.38
2023-04-27T19:29:59.766Z,13.25
2023-04-27T19:32:27.859Z,13.13
2023-04-27T19:34:58.867Z,13.04
2023-04-27T19:37:28.684Z,12.93
2023-04-27T19:39:57.028Z,12.79
2023-04-27T19:42:27.782Z,13.06
2023-04-27T19:44:56.021Z,12.60
2023-04-27T19:47:24.270Z,12.41
2023-04-27T19:49:51.475Z,12.39
2023-04-27T19:52:18.566Z,12.23
2023-04-27T19:54:51.690Z,12.33
2023-04-27T19:57:18.963Z,12.44
2023-04-27T19:59:46.119Z,12.31
2023-04-27T20:02:13.374Z,12.04
2023-04-27T20:04:41.743Z,12.13
2023-04-27T20:07:09.291Z,11.84
2023-04-27T20:09:36.408Z,11.95
2023-04-27T20:12:04.372Z,11.85
2023-04-27T20:14:33.909Z,11.68
2023-04-27T20:17:02.666Z,11.74
2023-04-27T20:19:30.357Z,11.81
2023-04-27T20:21:57.613Z,11.81
2023-04-27T20:24:24.697Z,11.63
2023-04-27T20:26:51.703Z,11.69
2023-04-27T20:29:19.108Z,11.64
2023-04-27T20:31:46.568Z,11.94
2023-04-27T20:34:14.119Z,11.71
2023-04-27T20:36:41.703Z,11.68
2023-04-27T20:39:09.236Z,11.68
2023-04-27T20:41:36.442Z,11.89
2023-04-27T20:44:03.903Z,11.83
2023-04-27T20:46:31.432Z,11.61
2023-04-27T20:48:58.537Z,11.57
2023-04-27T20:51:26.588Z,11.37
2023-04-27T20:53:53.843Z,11.47
2023-04-27T20:56:20.957Z,11.53
2023-04-27T20:58:48.150Z,11.30
2023-04-27T21:01:15.278Z,11.42
2023-04-27T21:03:42.566Z,11.66
2023-04-27T21:06:09.964Z,11.49
2023-04-27T21:08:37.756Z,11.43
2023-04-27T21:11:05.245Z,11.47
2023-04-27T21:13:32.412Z,11.61
2023-04-27T21:15:59.529Z,11.87
2023-04-27T21:18:30.432Z,11.94
2023-04-27T21:20:58.176Z,11.83
2023-04-27T21:23:25.401Z,11.72
2023-04-27T21:25:52.581Z,12.07
2023-04-27T21:28:19.771Z,11.88
2023-04-27T21:30:46.921Z,11.90
2023-04-27T21:33:14.046Z,12.04
2023-04-27T21:35:41.354Z,12.08
2023-04-27T21:38:08.531Z,12.03
2023-04-27T21:40:35.550Z,11.91
2023-04-27T21:43:02.932Z,11.95
2023-04-27T21:45:29.976Z,12.04
2023-04-27T21:47:57.036Z,12.01
2023-04-27T21:50:24.464Z,12.27
2023-04-27T21:52:51.470Z,12.03
2023-04-27T21:55:18.530Z,12.07
2023-04-27T21:57:45.779Z,12.16
2023-04-27T22:00:13.954Z,12.04
2023-04-27T22:02:48.685Z,12.14
2023-04-27T22:05:16.682Z,11.83
2023-04-27T22:07:46.148Z,11.93
2023-04-27T22:10:13.784Z,11.96
2023-04-27T22:12:40.857Z,12.21
2023-04-27T22:15:08.503Z,12.22
2023-04-27T22:17:35.852Z,12.02
2023-04-27T22:20:05.188Z,12.22
2023-04-27T22:22:32.246Z,12.22
2023-04-27T22:24:59.546Z,12.24
2023-04-27T22:27:35.134Z,12.25
2023-04-27T22:30:06.843Z,12.13
2023-04-27T22:32:34.265Z,12.05
2023-04-27T22:35:02.202Z,12.03
2023-04-27T22:37:29.766Z,11.92
2023-04-27T22:39:57.606Z,11.92
2023-04-27T22:42:24.761Z,11.67
2023-04-27T22:44:51.838Z,11.76
2023-04-27T22:47:18.910Z,11.79
2023-04-27T22:49:47.272Z,11.74
2023-04-27T22:52:14.537Z,11.94
2023-04-27T22:54:41.544Z,11.95
2023-04-27T22:57:08.619Z,11.82
2023-04-27T22:59:35.631Z,11.77
2023-04-27T23:02:02.746Z,11.66
2023-04-27T23:04:29.864Z,11.70
2023-04-27T23:06:57.799Z,11.66
2023-04-27T23:09:24.861Z,11.83
2023-04-27T23:11:51.936Z,11.69
2023-04-27T23:14:19.081Z,11.80
2023-04-27T23:16:48.981Z,11.70
2023-04-27T23:19:16.117Z,11.63
2023-04-27T23:21:43.140Z,11.93
2023-04-27T23:24:10.267Z,11.65
2023-04-27T23:26:37.341Z,11.74
2023-04-27T23:29:04.840Z,11.84
2023-04-27T23:31:32.221Z,11.47
2023-04-27T23:33:59.812Z,11.51
2023-04-27T23:36:26.969Z,11.44
2023-04-27T23:38:54.115Z,11.46
2023-04-27T23:41:21.300Z,11.62
2023-04-27T23:43:48.517Z,11.38
2023-04-27T23:46:15.659Z,11.17
2023-04-27T23:48:42.670Z,11.27
2023-04-27T23:51:09.732Z,11.40
2023-04-27T23:53:36.807Z,11.42
2023-04-27T23:56:03.858Z,11.43
2023-04-27T23:58:31.239Z,11.42
